This is the latest recevied weather packets stored in our database for station/object YO8PIC-13. If no packets are shown the sender has not sent any weather packets the latest 10 day(s).
| Time | Temp. | Humidity | Pressure | Rain* | Wind** | Luminosity | Snow |
|---|---|---|---|---|---|---|---|
| 1787820133 | 23.89° C | 63% | 1024.7 hPa | - | - | - | - |
| 1787819533 | 21.67° C | 71% | 1024.8 hPa | - | - | - | - |
| 1787818933 | 20° C | 78% | 1024.9 hPa | - | - | - | - |
| 1787818334 | 20° C | 80% | 1024.8 hPa | - | - | - | - |
| 1787817733 | 20.56° C | 79% | 1024.7 hPa | - | - | - | - |
| 1787817133 | 21.11° C | 78% | 1024.6 hPa | - | - | - | - |
| 1787816533 | 20° C | 84% | 1024.7 hPa | - | - | - | - |
| 1787815933 | 19.44° C | 85% | 1024.8 hPa | - | - | - | - |
| 1787815332 | 19.44° C | 85% | 1024.8 hPa | - | - | - | - |
| 1787814733 | 19.44° C | 86% | 1024.8 hPa | - | - | - | - |
| 1787814132 | 19.44° C | 86% | 1024.7 hPa | - | - | - | - |
| 1787813532 | 18.89° C | 83% | 1024.8 hPa | - | - | - | - |
| 1787812933 | 19.44° C | 84% | 1024.7 hPa | - | - | - | - |
| 1787812333 | 18.89° C | 84% | 1024.6 hPa | - | - | - | - |
| 1787811732 | 19.44° C | 85% | 1024.6 hPa | - | - | - | - |
| 1787811133 | 18.89° C | 85% | 1024.6 hPa | - | - | - | - |
| 1787810534 | 18.89° C | 86% | 1024.5 hPa | - | - | - | - |
| 1787809935 | 19.44° C | 85% | 1024.5 hPa | - | - | - | - |
| 1787809333 | 19.44° C | 85% | 1024.3 hPa | - | - | - | - |
| 1787808733 | 19.44° C | 86% | 1024.3 hPa | - | - | - | - |
| 1787808132 | 19.44° C | 86% | 1024.3 hPa | - | - | - | - |
| 1787807536 | 18.89° C | 86% | 1024.3 hPa | - | - | - | - |
| 1787806933 | 18.89° C | 86% | 1024.2 hPa | - | - | - | - |
| 1787806332 | 19.44° C | 85% | 1024.1 hPa | - | - | - | - |
| 1787805732 | 18.89° C | 88% | 1024.1 hPa | - | - | - | - |
* Rain since midnight (hover to see other rain measurements)
** Current wind speed in m/s (hover to see current wind gust speed)